Decoded Metar for KGAF ( in ) (IATA:) | Meteo·Mobile Aviation Weather
aviador You're here:

KGAF Decoded Metar

in
Report Time2018-09-22 18:15:00
UTC Time2018-09-22 18:28:32
Flight Rules vfr VFR
Wind330° at 10 kt
W.Decomp.*RWY 35: 9.4 kt HW 3.4 kt LCW
RWY 26: 3.4 kt HW 9.4 kt RCW
W.Rank330° ranks 5
Current wind is below 330° avg. (10.2)
Visibility9999 m
Phenomena:N/A
Clouds:Scattered 013 Hf
Scattered 024 Hf
Expected CloudBase > 1,600 ft AGL from Temp-Dew spread
CeilingNone
Temp12°C
Dew Point08°C (77% RH)
AAT8.0°C
QNH1018 hPa
Raw Report
KGAF 221815Z AUTO 33010KT 10SM SCT013 SCT024 12/08 A3007 RMK AO2
PWINO=

Extra information for KGAF:More info

Social comments